sensor_id;sensor_type;location;lat;lon;timestamp;pressure;altitude;pressure_sealevel;temperature;humidity
3812;BME280;1921;49.368;11.068;2023-02-14T00:01:56;99619.69;;;3.87;92.02
3812;BME280;1921;49.368;11.068;2023-02-14T00:04:22;99646.47;;;4.00;91.66
3812;BME280;1921;49.368;11.068;2023-02-14T00:06:48;99658.13;;;4.08;91.33
3812;BME280;1921;49.368;11.068;2023-02-14T00:09:16;99605.38;;;3.82;92.11
3812;BME280;1921;49.368;11.068;2023-02-14T00:11:43;99650.81;;;4.00;92.04
3812;BME280;1921;49.368;11.068;2023-02-14T00:14:10;99623.69;;;3.77;92.37
3812;BME280;1921;49.368;11.068;2023-02-14T00:16:54;99596.56;;;3.70;92.06
3812;BME280;1921;49.368;11.068;2023-02-14T00:19:21;99591.06;;;3.60;92.97
3812;BME280;1921;49.368;11.068;2023-02-14T00:21:48;99647.78;;;4.08;92.20
3812;BME280;1921;49.368;11.068;2023-02-14T00:24:23;99578.34;;;3.73;91.35
3812;BME280;1921;49.368;11.068;2023-02-14T00:26:50;99583.75;;;3.68;92.61
3812;BME280;1921;49.368;11.068;2023-02-14T00:29:21;99572.19;;;3.60;92.75
3812;BME280;1921;49.368;11.068;2023-02-14T00:31:47;99596.22;;;3.76;91.76
3812;BME280;1921;49.368;11.068;2023-02-14T00:34:15;99498.03;;;3.17;91.37
3812;BME280;1921;49.368;11.068;2023-02-14T00:36:42;99588.09;;;3.68;92.19
3812;BME280;1921;49.368;11.068;2023-02-14T00:39:10;99609.38;;;3.71;90.81
3812;BME280;1921;49.368;11.068;2023-02-14T00:41:38;99643.91;;;4.00;91.47
3812;BME280;1921;49.368;11.068;2023-02-14T00:44:04;99593.25;;;3.68;92.15
3812;BME280;1921;49.368;11.068;2023-02-14T00:46:30;99616.13;;;3.58;92.89
3812;BME280;1921;49.368;11.068;2023-02-14T00:48:56;99609.13;;;3.44;94.34
3812;BME280;1921;49.368;11.068;2023-02-14T00:51:22;99601.13;;;3.33;95.32
3812;BME280;1921;49.368;11.068;2023-02-14T00:53:48;99638.09;;;3.49;95.48
3812;BME280;1921;49.368;11.068;2023-02-14T00:56:16;99653.66;;;3.64;94.86
3812;BME280;1921;49.368;11.068;2023-02-14T00:58:42;99603.06;;;3.45;94.42
3812;BME280;1921;49.368;11.068;2023-02-14T01:01:09;99656.66;;;3.88;93.33
3812;BME280;1921;49.368;11.068;2023-02-14T01:03:35;99637.91;;;3.84;93.66
3812;BME280;1921;49.368;11.068;2023-02-14T01:06:01;99620.13;;;3.64;93.25
3812;BME280;1921;49.368;11.068;2023-02-14T01:08:27;99625.34;;;3.31;95.37
3812;BME280;1921;49.368;11.068;2023-02-14T01:10:53;99585.59;;;3.19;93.89
3812;BME280;1921;49.368;11.068;2023-02-14T01:13:19;99632.16;;;3.47;94.04
3812;BME280;1921;49.368;11.068;2023-02-14T01:15:49;99606.69;;;3.41;94.54
3812;BME280;1921;49.368;11.068;2023-02-14T01:18:17;99598.66;;;3.32;94.10
3812;BME280;1921;49.368;11.068;2023-02-14T01:20:44;99650.38;;;3.60;94.34
3812;BME280;1921;49.368;11.068;2023-02-14T01:23:10;99624.59;;;3.44;93.62
3812;BME280;1921;49.368;11.068;2023-02-14T01:25:37;99643.56;;;3.59;93.80
3812;BME280;1921;49.368;11.068;2023-02-14T01:28:05;99641.59;;;3.64;93.75
3812;BME280;1921;49.368;11.068;2023-02-14T01:30:31;99628.53;;;3.36;94.32
3812;BME280;1921;49.368;11.068;2023-02-14T01:32:57;99595.25;;;3.31;92.77
3812;BME280;1921;49.368;11.068;2023-02-14T01:35:23;99640.50;;;3.37;93.47
3812;BME280;1921;49.368;11.068;2023-02-14T01:37:49;99615.28;;;3.26;92.44
3812;BME280;1921;49.368;11.068;2023-02-14T01:40:15;99581.72;;;2.94;95.59
3812;BME280;1921;49.368;11.068;2023-02-14T01:42:42;99631.16;;;3.18;95.44
3812;BME280;1921;49.368;11.068;2023-02-14T01:47:40;99592.25;;;2.90;95.83
3812;BME280;1921;49.368;11.068;2023-02-14T01:50:17;99641.31;;;3.37;94.88
3812;BME280;1921;49.368;11.068;2023-02-14T01:52:52;99627.81;;;3.16;95.54
3812;BME280;1921;49.368;11.068;2023-02-14T01:55:24;99608.09;;;3.15;94.12
3812;BME280;1921;49.368;11.068;2023-02-14T01:57:58;99605.69;;;2.79;95.93
3812;BME280;1921;49.368;11.068;2023-02-14T02:00:26;99621.28;;;2.93;95.78
3812;BME280;1921;49.368;11.068;2023-02-14T02:03:12;99626.88;;;3.02;95.48
3812;BME280;1921;49.368;11.068;2023-02-14T02:05:42;99625.28;;;2.99;96.32
3812;BME280;1921;49.368;11.068;2023-02-14T02:08:09;99616.56;;;3.02;96.56
3812;BME280;1921;49.368;11.068;2023-02-14T02:10:35;99606.44;;;2.99;95.81
3812;BME280;1921;49.368;11.068;2023-02-14T02:13:05;99666.66;;;3.29;95.44
3812;BME280;1921;49.368;11.068;2023-02-14T02:22:03;99663.56;;;3.56;94.99
3812;BME280;1921;49.368;11.068;2023-02-14T02:37:06;99563.19;;;2.88;93.59
3812;BME280;1921;49.368;11.068;2023-02-14T02:40:21;99667.66;;;3.11;96.52
3812;BME280;1921;49.368;11.068;2023-02-14T02:45:47;99636.59;;;2.79;98.48
3812;BME280;1921;49.368;11.068;2023-02-14T02:48:58;99604.19;;;2.75;96.71
3812;BME280;1921;49.368;11.068;2023-02-14T02:51:57;99547.81;;;2.36;96.95
3812;BME280;1921;49.368;11.068;2023-02-14T02:55:01;99584.63;;;2.38;97.96
3812;BME280;1921;49.368;11.068;2023-02-14T02:57:34;99656.28;;;2.97;97.79
3812;BME280;1921;49.368;11.068;2023-02-14T03:00:05;99621.63;;;2.70;98.53
3812;BME280;1921;49.368;11.068;2023-02-14T03:02:42;99596.59;;;2.56;97.99
3812;BME280;1921;49.368;11.068;2023-02-14T03:05:29;99617.63;;;2.64;99.46
3812;BME280;1921;49.368;11.068;2023-02-14T03:07:56;99604.22;;;2.58;99.52
3812;BME280;1921;49.368;11.068;2023-02-14T03:10:26;99594.31;;;2.50;99.10
3812;BME280;1921;49.368;11.068;2023-02-14T03:14:25;99654.09;;;2.90;98.60
3812;BME280;1921;49.368;11.068;2023-02-14T03:16:33;99597.00;;;2.64;97.64
3812;BME280;1921;49.368;11.068;2023-02-14T03:19:32;99658.19;;;2.94;97.90
3812;BME280;1921;49.368;11.068;2023-02-14T03:22:54;99660.03;;;2.92;98.08
3812;BME280;1921;49.368;11.068;2023-02-14T03:31:03;99583.84;;;2.53;97.72
3812;BME280;1921;49.368;11.068;2023-02-14T03:36:39;99667.41;;;2.98;96.72
3812;BME280;1921;49.368;11.068;2023-02-14T03:39:30;99650.47;;;2.94;97.38
3812;BME280;1921;49.368;11.068;2023-02-14T03:42:30;99660.25;;;2.87;97.07
3812;BME280;1921;49.368;11.068;2023-02-14T03:44:56;99592.34;;;2.55;97.88
3812;BME280;1921;49.368;11.068;2023-02-14T03:47:28;99629.34;;;2.87;96.83
3812;BME280;1921;49.368;11.068;2023-02-14T03:50:10;99599.06;;;2.58;96.89
3812;BME280;1921;49.368;11.068;2023-02-14T03:52:39;99612.00;;;2.74;96.79
3812;BME280;1921;49.368;11.068;2023-02-14T03:55:07;99651.13;;;2.97;96.81
3812;BME280;1921;49.368;11.068;2023-02-14T03:57:41;99598.28;;;2.73;96.69
3812;BME280;1921;49.368;11.068;2023-02-14T04:00:13;99594.97;;;2.71;97.33
3812;BME280;1921;49.368;11.068;2023-02-14T04:02:52;99611.31;;;2.70;97.13
3812;BME280;1921;49.368;11.068;2023-02-14T04:05:24;99499.72;;;2.03;96.51
3812;BME280;1921;49.368;11.068;2023-02-14T04:07:53;99609.66;;;2.69;97.03
3812;BME280;1921;49.368;11.068;2023-02-14T04:10:20;99588.69;;;2.59;97.66
3812;BME280;1921;49.368;11.068;2023-02-14T04:12:47;99607.00;;;2.70;97.62
3812;BME280;1921;49.368;11.068;2023-02-14T04:15:13;99575.50;;;2.48;97.21
3812;BME280;1921;49.368;11.068;2023-02-14T04:17:39;99644.56;;;2.92;97.05
3812;BME280;1921;49.368;11.068;2023-02-14T04:20:25;99616.97;;;2.61;97.22
3812;BME280;1921;49.368;11.068;2023-02-14T04:22:51;99628.53;;;2.52;97.42
3812;BME280;1921;49.368;11.068;2023-02-14T04:25:17;99617.41;;;2.52;97.17
3812;BME280;1921;49.368;11.068;2023-02-14T04:27:43;99610.59;;;2.51;97.59
3812;BME280;1921;49.368;11.068;2023-02-14T04:30:10;99602.34;;;2.61;95.96
3812;BME280;1921;49.368;11.068;2023-02-14T04:32:37;99603.22;;;2.60;97.19
3812;BME280;1921;49.368;11.068;2023-02-14T04:35:04;99614.66;;;2.72;96.46
3812;BME280;1921;49.368;11.068;2023-02-14T04:37:29;99576.38;;;2.49;96.93
3812;BME280;1921;49.368;11.068;2023-02-14T04:39:56;99632.81;;;2.86;96.37
3812;BME280;1921;49.368;11.068;2023-02-14T04:42:22;99561.44;;;2.55;95.93
3812;BME280;1921;49.368;11.068;2023-02-14T04:44:48;99588.66;;;2.77;96.15
3812;BME280;1921;49.368;11.068;2023-02-14T04:47:13;99585.03;;;2.81;95.81
3812;BME280;1921;49.368;11.068;2023-02-14T04:49:39;99600.81;;;2.90;96.06
3812;BME280;1921;49.368;11.068;2023-02-14T04:52:05;99614.91;;;3.01;96.18
3812;BME280;1921;49.368;11.068;2023-02-14T04:54:31;99561.88;;;2.63;96.50
3812;BME280;1921;49.368;11.068;2023-02-14T04:56:57;99590.22;;;2.79;95.61
3812;BME280;1921;49.368;11.068;2023-02-14T04:59:23;99563.25;;;2.53;96.30
3812;BME280;1921;49.368;11.068;2023-02-14T05:01:49;99584.09;;;2.82;95.26
3812;BME280;1921;49.368;11.068;2023-02-14T05:04:15;99561.31;;;2.74;95.98
3812;BME280;1921;49.368;11.068;2023-02-14T05:06:40;99589.47;;;2.61;96.55
3812;BME280;1921;49.368;11.068;2023-02-14T05:09:06;99555.28;;;2.58;97.15
3812;BME280;1921;49.368;11.068;2023-02-14T05:11:32;99605.75;;;2.95;96.71
3812;BME280;1921;49.368;11.068;2023-02-14T05:13:58;99577.16;;;2.66;96.60
3812;BME280;1921;49.368;11.068;2023-02-14T05:16:24;99559.94;;;2.67;95.83
3812;BME280;1921;49.368;11.068;2023-02-14T05:18:49;99388.25;;;1.52;96.68
3812;BME280;1921;49.368;11.068;2023-02-14T05:21:15;99584.50;;;2.74;96.94
3812;BME280;1921;49.368;11.068;2023-02-14T05:23:41;99580.25;;;2.73;96.47
3812;BME280;1921;49.368;11.068;2023-02-14T05:26:07;99546.31;;;2.49;96.86
3812;BME280;1921;49.368;11.068;2023-02-14T05:28:33;99561.88;;;2.63;97.25
3812;BME280;1921;49.368;11.068;2023-02-14T05:30:59;99561.19;;;2.60;98.04
3812;BME280;1921;49.368;11.068;2023-02-14T05:33:25;99534.06;;;2.37;98.54
3812;BME280;1921;49.368;11.068;2023-02-14T05:35:51;99561.91;;;2.46;98.62
3812;BME280;1921;49.368;11.068;2023-02-14T05:38:18;99546.31;;;2.32;99.03
3812;BME280;1921;49.368;11.068;2023-02-14T05:40:44;99560.28;;;2.61;98.13
3812;BME280;1921;49.368;11.068;2023-02-14T05:43:10;99575.41;;;2.67;97.63
3812;BME280;1921;49.368;11.068;2023-02-14T05:45:36;99615.09;;;2.80;98.29
3812;BME280;1921;49.368;11.068;2023-02-14T05:48:02;99529.75;;;2.20;98.88
3812;BME280;1921;49.368;11.068;2023-02-14T05:50:28;99608.63;;;2.56;99.66
3812;BME280;1921;49.368;11.068;2023-02-14T05:52:55;99597.19;;;2.61;98.84
3812;BME280;1921;49.368;11.068;2023-02-14T05:55:21;99541.56;;;1.89;100.00
3812;BME280;1921;49.368;11.068;2023-02-14T05:57:47;99612.91;;;2.03;100.00
3812;BME280;1921;49.368;11.068;2023-02-14T06:00:13;99491.28;;;1.30;100.00
3812;BME280;1921;49.368;11.068;2023-02-14T06:02:39;99561.91;;;1.94;100.00
3812;BME280;1921;49.368;11.068;2023-02-14T06:05:06;99554.56;;;2.04;100.00
3812;BME280;1921;49.368;11.068;2023-02-14T06:07:32;99595.38;;;2.29;100.00
3812;BME280;1921;49.368;11.068;2023-02-14T06:09:57;99559.94;;;2.16;100.00
3812;BME280;1921;49.368;11.068;2023-02-14T06:12:23;99546.53;;;2.10;100.00
3812;BME280;1921;49.368;11.068;2023-02-14T06:14:51;99576.38;;;2.31;100.00
3812;BME280;1921;49.368;11.068;2023-02-14T06:17:16;99534.69;;;2.07;100.00
3812;BME280;1921;49.368;11.068;2023-02-14T06:19:42;99583.63;;;2.40;100.00
3812;BME280;1921;49.368;11.068;2023-02-14T06:22:08;99544.06;;;2.26;100.00
3812;BME280;1921;49.368;11.068;2023-02-14T06:24:34;99559.41;;;2.45;100.00
3812;BME280;1921;49.368;11.068;2023-02-14T06:27:03;99611.00;;;2.76;100.00
3812;BME280;1921;49.368;11.068;2023-02-14T06:29:29;99590.28;;;2.62;100.00
3812;BME280;1921;49.368;11.068;2023-02-14T06:31:54;99560.38;;;2.42;99.46
3812;BME280;1921;49.368;11.068;2023-02-14T06:34:20;99586.66;;;2.49;99.82
3812;BME280;1921;49.368;11.068;2023-02-14T06:36:46;99542.63;;;2.20;99.91
3812;BME280;1921;49.368;11.068;2023-02-14T06:39:12;99631.94;;;2.70;99.67
3812;BME280;1921;49.368;11.068;2023-02-14T06:41:38;99582.66;;;2.08;99.95
3812;BME280;1921;49.368;11.068;2023-02-14T06:44:05;99629.66;;;2.47;100.00
3812;BME280;1921;49.368;11.068;2023-02-14T06:46:32;99581.44;;;2.15;100.00
3812;BME280;1921;49.368;11.068;2023-02-14T06:48:58;99565.41;;;2.28;99.36
3812;BME280;1921;49.368;11.068;2023-02-14T06:51:24;99574.03;;;2.27;98.66
3812;BME280;1921;49.368;11.068;2023-02-14T06:53:50;99578.97;;;2.31;98.92
3812;BME280;1921;49.368;11.068;2023-02-14T06:56:16;99547.75;;;2.03;99.46
3812;BME280;1921;49.368;11.068;2023-02-14T06:58:41;99576.78;;;2.24;99.82
3812;BME280;1921;49.368;11.068;2023-02-14T07:01:07;99564.44;;;2.30;99.32
3812;BME280;1921;49.368;11.068;2023-02-14T07:03:33;99632.63;;;2.56;99.69
3812;BME280;1921;49.368;11.068;2023-02-14T07:05:58;99582.06;;;2.21;99.24
3812;BME280;1921;49.368;11.068;2023-02-14T07:08:25;99605.38;;;2.35;99.91
3812;BME280;1921;49.368;11.068;2023-02-14T07:10:57;99603.63;;;2.35;100.00
3812;BME280;1921;49.368;11.068;2023-02-14T07:13:24;99591.13;;;2.28;100.00
3812;BME280;1921;49.368;11.068;2023-02-14T07:15:49;99612.34;;;2.50;100.00
3812;BME280;1921;49.368;11.068;2023-02-14T07:18:15;99606.88;;;2.39;99.89
3812;BME280;1921;49.368;11.068;2023-02-14T07:20:41;99576.28;;;2.15;100.00
3812;BME280;1921;49.368;11.068;2023-02-14T07:23:08;99560.31;;;2.09;100.00
3812;BME280;1921;49.368;11.068;2023-02-14T07:25:34;99570.22;;;2.16;100.00
3812;BME280;1921;49.368;11.068;2023-02-14T07:28:00;99567.91;;;2.12;100.00
3812;BME280;1921;49.368;11.068;2023-02-14T07:30:26;99576.69;;;2.25;100.00
3812;BME280;1921;49.368;11.068;2023-02-14T07:32:52;99577.81;;;2.20;100.00
3812;BME280;1921;49.368;11.068;2023-02-14T07:35:18;99582.88;;;2.38;100.00
3812;BME280;1921;49.368;11.068;2023-02-14T07:37:51;99625.78;;;2.73;100.00
3812;BME280;1921;49.368;11.068;2023-02-14T07:40:17;99611.81;;;2.61;99.99
3812;BME280;1921;49.368;11.068;2023-02-14T07:42:54;99613.47;;;2.62;100.00
3812;BME280;1921;49.368;11.068;2023-02-14T07:45:21;99579.16;;;2.44;100.00
3812;BME280;1921;49.368;11.068;2023-02-14T07:47:48;99588.94;;;2.55;100.00
3812;BME280;1921;49.368;11.068;2023-02-14T07:50:15;99531.09;;;2.27;100.00
3812;BME280;1921;49.368;11.068;2023-02-14T07:52:40;99575.97;;;2.56;100.00
3812;BME280;1921;49.368;11.068;2023-02-14T07:55:06;99578.47;;;2.58;100.00
3812;BME280;1921;49.368;11.068;2023-02-14T07:57:38;99592.09;;;2.60;100.00
3812;BME280;1921;49.368;11.068;2023-02-14T08:00:05;99570.97;;;2.53;100.00
3812;BME280;1921;49.368;11.068;2023-02-14T08:02:31;99579.81;;;2.65;99.97
3812;BME280;1921;49.368;11.068;2023-02-14T08:04:57;99593.81;;;2.77;99.32
3812;BME280;1921;49.368;11.068;2023-02-14T08:07:23;99597.53;;;2.71;100.00
3812;BME280;1921;49.368;11.068;2023-02-14T08:09:49;99569.19;;;2.71;97.63
3812;BME280;1921;49.368;11.068;2023-02-14T08:12:15;99566.91;;;2.82;96.86
3812;BME280;1921;49.368;11.068;2023-02-14T08:14:59;99577.34;;;2.79;97.61
3812;BME280;1921;49.368;11.068;2023-02-14T08:17:45;99598.56;;;2.84;97.98
3812;BME280;1921;49.368;11.068;2023-02-14T08:20:11;99563.84;;;2.58;97.30
3812;BME280;1921;49.368;11.068;2023-02-14T08:22:37;99560.16;;;2.29;99.06
3812;BME280;1921;49.368;11.068;2023-02-14T08:25:03;99447.69;;;1.64;100.00
3812;BME280;1921;49.368;11.068;2023-02-14T08:27:28;99581.09;;;2.74;98.96
3812;BME280;1921;49.368;11.068;2023-02-14T08:29:54;99526.13;;;2.57;98.14
3812;BME280;1921;49.368;11.068;2023-02-14T08:32:20;99570.19;;;3.02;97.18
3812;BME280;1921;49.368;11.068;2023-02-14T08:34:46;99579.91;;;3.12;97.83
3812;BME280;1921;49.368;11.068;2023-02-14T08:37:12;99584.16;;;3.13;98.09
3812;BME280;1921;49.368;11.068;2023-02-14T08:39:38;99570.94;;;3.19;95.39
3812;BME280;1921;49.368;11.068;2023-02-14T08:42:05;99571.69;;;3.21;95.34
3812;BME280;1921;49.368;11.068;2023-02-14T08:44:31;99564.03;;;3.20;96.22
3812;BME280;1921;49.368;11.068;2023-02-14T08:46:56;99541.72;;;3.03;95.86
3812;BME280;1921;49.368;11.068;2023-02-14T08:49:22;99554.13;;;2.96;96.72
3812;BME280;1921;49.368;11.068;2023-02-14T08:51:48;99588.06;;;3.20;95.28
3812;BME280;1921;49.368;11.068;2023-02-14T08:54:15;99538.25;;;3.20;94.57
3812;BME280;1921;49.368;11.068;2023-02-14T08:56:42;99573.13;;;3.43;95.08
3812;BME280;1921;49.368;11.068;2023-02-14T08:59:08;99556.56;;;3.31;93.83
3812;BME280;1921;49.368;11.068;2023-02-14T09:01:34;99559.91;;;3.17;94.69
3812;BME280;1921;49.368;11.068;2023-02-14T09:04:01;99547.50;;;3.24;92.90
3812;BME280;1921;49.368;11.068;2023-02-14T09:06:27;99546.22;;;3.15;94.60
3812;BME280;1921;49.368;11.068;2023-02-14T09:08:52;99548.22;;;3.10;94.90
3812;BME280;1921;49.368;11.068;2023-02-14T09:11:22;99579.84;;;3.14;95.32
3812;BME280;1921;49.368;11.068;2023-02-14T09:13:50;99558.72;;;3.07;95.97
3812;BME280;1921;49.368;11.068;2023-02-14T09:16:19;99568.38;;;3.19;95.43
3812;BME280;1921;49.368;11.068;2023-02-14T09:18:46;99539.66;;;3.10;94.99
3812;BME280;1921;49.368;11.068;2023-02-14T09:21:16;99563.44;;;3.46;93.23
3812;BME280;1921;49.368;11.068;2023-02-14T09:23:42;99605.97;;;3.71;93.19
3812;BME280;1921;49.368;11.068;2023-02-14T09:26:12;99544.25;;;3.36;93.82
3812;BME280;1921;49.368;11.068;2023-02-14T09:28:38;99581.03;;;3.24;93.60
3812;BME280;1921;49.368;11.068;2023-02-14T09:31:20;99557.38;;;3.16;94.80
3812;BME280;1921;49.368;11.068;2023-02-14T09:33:47;99535.28;;;3.12;93.54
3812;BME280;1921;49.368;11.068;2023-02-14T09:36:14;99577.34;;;3.60;93.54
3812;BME280;1921;49.368;11.068;2023-02-14T09:38:43;99532.94;;;3.39;95.13
3812;BME280;1921;49.368;11.068;2023-02-14T09:44:25;99613.06;;;3.97;94.29
3812;BME280;1921;49.368;11.068;2023-02-14T09:46:58;99542.97;;;3.59;92.62
3812;BME280;1921;49.368;11.068;2023-02-14T09:49:36;99570.22;;;3.17;93.95
3812;BME280;1921;49.368;11.068;2023-02-14T09:52:04;99566.31;;;2.77;99.10
3812;BME280;1921;49.368;11.068;2023-02-14T09:54:33;99533.22;;;2.85;96.58
3812;BME280;1921;49.368;11.068;2023-02-14T09:57:40;99562.63;;;3.46;95.29
3812;BME280;1921;49.368;11.068;2023-02-14T10:00:32;99554.88;;;3.62;94.42
3812;BME280;1921;49.368;11.068;2023-02-14T10:03:40;99546.03;;;3.66;93.17
3812;BME280;1921;49.368;11.068;2023-02-14T10:06:36;99593.28;;;3.98;92.67
3812;BME280;1921;49.368;11.068;2023-02-14T10:09:22;99555.41;;;3.83;91.39
3812;BME280;1921;49.368;11.068;2023-02-14T10:11:52;99563.44;;;4.08;90.94
3812;BME280;1921;49.368;11.068;2023-02-14T10:14:28;99539.44;;;3.92;91.79
3812;BME280;1921;49.368;11.068;2023-02-14T10:17:05;99516.44;;;3.73;91.81
3812;BME280;1921;49.368;11.068;2023-02-14T10:19:59;99571.59;;;4.16;92.08
3812;BME280;1921;49.368;11.068;2023-02-14T10:22:42;99493.00;;;3.46;92.87
3812;BME280;1921;49.368;11.068;2023-02-14T10:25:21;99568.34;;;4.13;94.19
3812;BME280;1921;49.368;11.068;2023-02-14T10:27:48;99575.25;;;4.42;92.12
3812;BME280;1921;49.368;11.068;2023-02-14T10:30:19;99538.31;;;4.40;89.65
3812;BME280;1921;49.368;11.068;2023-02-14T10:35:49;99585.09;;;4.36;90.83
3812;BME280;1921;49.368;11.068;2023-02-14T10:42:03;99588.56;;;4.93;88.25
3812;BME280;1921;49.368;11.068;2023-02-14T10:44:53;99576.72;;;5.18;85.56
3812;BME280;1921;49.368;11.068;2023-02-14T10:50:38;99540.94;;;4.69;86.27
3812;BME280;1921;49.368;11.068;2023-02-14T10:56:18;99559.03;;;4.69;87.06
3812;BME280;1921;49.368;11.068;2023-02-14T10:58:46;99504.00;;;4.52;86.39
3812;BME280;1921;49.368;11.068;2023-02-14T11:01:16;99481.94;;;4.18;86.30
3812;BME280;1921;49.368;11.068;2023-02-14T11:04:02;99498.78;;;4.54;86.06
3812;BME280;1921;49.368;11.068;2023-02-14T11:06:33;99502.63;;;4.75;86.30
3812;BME280;1921;49.368;11.068;2023-02-14T11:08:59;99507.88;;;4.31;87.76
3812;BME280;1921;49.368;11.068;2023-02-14T11:11:47;99552.81;;;4.71;85.87
3812;BME280;1921;49.368;11.068;2023-02-14T11:14:30;99509.97;;;4.10;89.35
3812;BME280;1921;49.368;11.068;2023-02-14T11:16:58;99526.59;;;3.90;90.82
3812;BME280;1921;49.368;11.068;2023-02-14T11:19:25;99553.84;;;3.80;92.94
3812;BME280;1921;49.368;11.068;2023-02-14T11:21:54;99468.72;;;3.34;92.43
3812;BME280;1921;49.368;11.068;2023-02-14T11:24:36;99552.66;;;3.56;96.57
3812;BME280;1921;49.368;11.068;2023-02-14T11:27:16;99537.59;;;3.94;94.94
3812;BME280;1921;49.368;11.068;2023-02-14T11:29:45;99544.19;;;4.28;92.21
3812;BME280;1921;49.368;11.068;2023-02-14T11:32:29;99468.66;;;3.20;95.90
3812;BME280;1921;49.368;11.068;2023-02-14T11:35:15;99520.78;;;4.31;93.29
3812;BME280;1921;49.368;11.068;2023-02-14T11:37:45;99527.81;;;4.86;88.67
3812;BME280;1921;49.368;11.068;2023-02-14T11:40:34;99536.84;;;4.36;89.09
3812;BME280;1921;49.368;11.068;2023-02-14T11:49:00;99474.84;;;3.77;92.64
3812;BME280;1921;49.368;11.068;2023-02-14T11:51:43;99488.34;;;4.41;89.96
3812;BME280;1921;49.368;11.068;2023-02-14T11:54:31;99491.09;;;4.81;87.17
3812;BME280;1921;49.368;11.068;2023-02-14T11:57:10;99520.22;;;5.38;86.26
3812;BME280;1921;49.368;11.068;2023-02-14T11:59:48;99479.34;;;5.31;85.94
3812;BME280;1921;49.368;11.068;2023-02-14T12:07:53;99416.50;;;5.81;81.15
3812;BME280;1921;49.368;11.068;2023-02-14T12:10:27;99447.84;;;6.04;78.33
3812;BME280;1921;49.368;11.068;2023-02-14T12:18:41;99445.13;;;6.56;76.64
3812;BME280;1921;49.368;11.068;2023-02-14T12:21:59;99432.41;;;6.90;75.56
3812;BME280;1921;49.368;11.068;2023-02-14T12:27:21;99399.63;;;6.76;72.57
3812;BME280;1921;49.368;11.068;2023-02-14T12:32:55;99441.03;;;7.14;71.58
3812;BME280;1921;49.368;11.068;2023-02-14T12:36:02;99454.19;;;6.74;73.63
3812;BME280;1921;49.368;11.068;2023-02-14T12:41:23;99451.88;;;5.55;81.15
3812;BME280;1921;49.368;11.068;2023-02-14T12:43:56;99394.78;;;5.84;79.54
3812;BME280;1921;49.368;11.068;2023-02-14T12:46:56;99438.84;;;5.57;80.02
3812;BME280;1921;49.368;11.068;2023-02-14T12:52:40;99379.69;;;4.71;85.46
3812;BME280;1921;49.368;11.068;2023-02-14T12:55:57;99439.41;;;5.87;81.75
3812;BME280;1921;49.368;11.068;2023-02-14T13:07:20;99420.59;;;7.10;74.92
3812;BME280;1921;49.368;11.068;2023-02-14T13:12:59;99383.66;;;6.45;76.30
3812;BME280;1921;49.368;11.068;2023-02-14T13:18:41;99423.41;;;6.70;76.94
3812;BME280;1921;49.368;11.068;2023-02-14T13:21:14;99406.31;;;6.05;79.66
3812;BME280;1921;49.368;11.068;2023-02-14T13:23:51;99397.66;;;6.43;76.28
3812;BME280;1921;49.368;11.068;2023-02-14T13:26:26;99381.84;;;5.19;81.97
3812;BME280;1921;49.368;11.068;2023-02-14T13:29:12;99390.84;;;5.26;85.46
3812;BME280;1921;49.368;11.068;2023-02-14T13:31:39;99386.50;;;5.79;80.75
3812;BME280;1921;49.368;11.068;2023-02-14T13:34:31;99409.59;;;5.94;81.69
3812;BME280;1921;49.368;11.068;2023-02-14T13:36:59;99329.47;;;5.93;79.35
3812;BME280;1921;49.368;11.068;2023-02-14T13:39:35;99401.19;;;6.79;79.34
3812;BME280;1921;49.368;11.068;2023-02-14T13:42:03;99328.44;;;6.69;77.36
3812;BME280;1921;49.368;11.068;2023-02-14T13:44:41;99390.66;;;7.41;75.71
3812;BME280;1921;49.368;11.068;2023-02-14T13:47:19;99342.91;;;7.19;73.05
3812;BME280;1921;49.368;11.068;2023-02-14T13:50:19;99351.69;;;7.29;73.62
3812;BME280;1921;49.368;11.068;2023-02-14T13:52:47;99322.19;;;7.31;73.20
3812;BME280;1921;49.368;11.068;2023-02-14T13:55:26;99350.25;;;7.72;70.62
3812;BME280;1921;49.368;11.068;2023-02-14T14:00:41;99369.00;;;7.75;69.47
3812;BME280;1921;49.368;11.068;2023-02-14T14:06:11;99396.09;;;7.95;70.49
3812;BME280;1921;49.368;11.068;2023-02-14T14:08:39;99334.00;;;7.35;71.42
3812;BME280;1921;49.368;11.068;2023-02-14T14:14:09;99204.06;;;6.91;70.01
3812;BME280;1921;49.368;11.068;2023-02-14T14:16:59;99346.59;;;7.86;70.09
3812;BME280;1921;49.368;11.068;2023-02-14T14:22:06;99366.09;;;7.91;70.55
3812;BME280;1921;49.368;11.068;2023-02-14T14:24:37;99309.13;;;7.54;70.53
3812;BME280;1921;49.368;11.068;2023-02-14T14:27:31;99358.41;;;7.90;71.59
3812;BME280;1921;49.368;11.068;2023-02-14T14:30:22;99313.75;;;7.73;71.01
3812;BME280;1921;49.368;11.068;2023-02-14T14:32:49;99281.75;;;6.45;75.34
3812;BME280;1921;49.368;11.068;2023-02-14T14:35:22;99287.97;;;7.14;72.65
3812;BME280;1921;49.368;11.068;2023-02-14T14:37:55;99339.47;;;7.54;71.78
3812;BME280;1921;49.368;11.068;2023-02-14T14:40:34;99304.97;;;7.29;71.46
3812;BME280;1921;49.368;11.068;2023-02-14T14:43:24;99278.19;;;6.59;73.32
3812;BME280;1921;49.368;11.068;2023-02-14T14:45:50;99338.53;;;6.61;75.54
3812;BME280;1921;49.368;11.068;2023-02-14T14:48:41;99260.38;;;6.54;74.13
3812;BME280;1921;49.368;11.068;2023-02-14T14:51:27;99332.03;;;5.80;78.79
3812;BME280;1921;49.368;11.068;2023-02-14T14:54:01;99312.66;;;4.55;87.06
3812;BME280;1921;49.368;11.068;2023-02-14T14:56:35;99286.22;;;3.82;91.75
3812;BME280;1921;49.368;11.068;2023-02-14T15:01:48;99283.59;;;4.25;89.68
3812;BME280;1921;49.368;11.068;2023-02-14T15:04:31;99337.06;;;4.78;89.99
3812;BME280;1921;49.368;11.068;2023-02-14T15:09:43;99305.81;;;4.27;90.72
3812;BME280;1921;49.368;11.068;2023-02-14T15:12:10;99299.75;;;4.95;88.02
3812;BME280;1921;49.368;11.068;2023-02-14T15:14:56;99304.91;;;5.48;82.64
3812;BME280;1921;49.368;11.068;2023-02-14T15:17:30;99334.47;;;5.18;85.55
3812;BME280;1921;49.368;11.068;2023-02-14T15:20:09;99310.56;;;5.27;85.76
3812;BME280;1921;49.368;11.068;2023-02-14T15:22:45;99329.44;;;5.02;86.24
3812;BME280;1921;49.368;11.068;2023-02-14T15:25:34;99328.81;;;5.51;84.88
3812;BME280;1921;49.368;11.068;2023-02-14T15:28:01;99295.50;;;5.59;83.88
3812;BME280;1921;49.368;11.068;2023-02-14T15:30:32;99310.38;;;5.30;84.96
3812;BME280;1921;49.368;11.068;2023-02-14T15:33:04;99322.28;;;4.39;91.53
3812;BME280;1921;49.368;11.068;2023-02-14T15:35:33;99334.75;;;4.32;93.20
3812;BME280;1921;49.368;11.068;2023-02-14T15:38:03;99309.00;;;3.75;96.62